createdAt,value
2017-07-26T00:01:30.666Z,4.40
2017-07-26T00:03:58.508Z,4.07
2017-07-26T00:06:26.289Z,4.63
2017-07-26T00:08:53.874Z,5.20
2017-07-26T00:11:21.502Z,4.30
2017-07-26T00:13:49.119Z,4.57
2017-07-26T00:16:16.690Z,5.17
2017-07-26T00:18:44.469Z,4.67
2017-07-26T00:21:12.117Z,5.13
2017-07-26T00:23:39.681Z,4.53
2017-07-26T00:26:07.507Z,4.43
2017-07-26T00:28:35.079Z,5.77
2017-07-26T00:31:02.726Z,5.03
2017-07-26T00:33:30.485Z,5.30
2017-07-26T00:35:58.284Z,5.20
2017-07-26T00:38:25.850Z,4.80
2017-07-26T00:40:53.401Z,5.03
2017-07-26T00:43:21.150Z,4.57
2017-07-26T00:45:48.790Z,5.53
2017-07-26T00:48:16.372Z,5.90
2017-07-26T00:50:43.973Z,5.27
2017-07-26T00:53:12.459Z,4.73
2017-07-26T00:55:40.054Z,5.40
2017-07-26T00:58:07.645Z,6.93
2017-07-26T01:00:35.297Z,6.20
2017-07-26T01:03:02.877Z,6.00
2017-07-26T01:05:30.402Z,5.80
2017-07-26T01:07:58.044Z,6.30
2017-07-26T01:10:25.606Z,6.20
2017-07-26T01:12:53.373Z,6.53
2017-07-26T01:15:21.005Z,5.83
2017-07-26T01:17:48.553Z,6.97
2017-07-26T01:20:16.417Z,6.80
2017-07-26T01:22:44.049Z,7.93
2017-07-26T01:25:11.622Z,8.03
2017-07-26T01:27:39.209Z,8.57
2017-07-26T01:30:07.193Z,7.40
2017-07-26T01:32:34.822Z,7.60
2017-07-26T01:35:02.378Z,8.77
2017-07-26T01:37:29.943Z,8.40
2017-07-26T01:39:57.581Z,7.77
2017-07-26T01:42:25.205Z,8.93
2017-07-26T01:44:52.856Z,8.83
2017-07-26T01:47:20.466Z,8.27
2017-07-26T01:49:48.208Z,8.20
2017-07-26T01:52:17.553Z,8.07
2017-07-26T01:54:45.105Z,8.30
2017-07-26T01:57:12.962Z,8.30
2017-07-26T01:59:40.584Z,8.50
2017-07-26T02:02:08.226Z,8.70
2017-07-26T02:04:35.765Z,7.83
2017-07-26T02:07:03.327Z,7.73
2017-07-26T02:09:31.092Z,9.07
2017-07-26T02:11:58.646Z,9.00
2017-07-26T02:14:26.249Z,9.23
2017-07-26T02:16:53.828Z,9.10
2017-07-26T02:19:21.677Z,8.70
2017-07-26T02:21:49.254Z,7.63
2017-07-26T02:24:16.822Z,7.80
2017-07-26T02:26:44.370Z,7.97
2017-07-26T02:29:11.931Z,9.00
2017-07-26T02:31:39.534Z,10.30
2017-07-26T02:34:07.088Z,9.40
2017-07-26T02:36:34.638Z,10.17
2017-07-26T02:39:02.246Z,9.20
2017-07-26T02:41:30.685Z,8.60
2017-07-26T02:43:59.014Z,10.67
2017-07-26T02:46:26.849Z,11.33
2017-07-26T02:48:56.035Z,12.00
2017-07-26T02:51:24.538Z,12.80
2017-07-26T02:53:52.133Z,11.73
2017-07-26T02:56:19.715Z,11.60
2017-07-26T02:58:48.042Z,11.90
2017-07-26T03:01:15.639Z,9.90
2017-07-26T03:03:43.198Z,11.13
2017-07-26T03:06:10.832Z,10.10
2017-07-26T03:08:38.464Z,9.97
2017-07-26T03:11:06.055Z,10.20
2017-07-26T03:13:33.674Z,9.57
2017-07-26T03:16:01.307Z,10.63
2017-07-26T03:18:28.852Z,9.60
2017-07-26T03:20:56.452Z,10.27
2017-07-26T03:23:24.071Z,9.47
2017-07-26T03:25:51.622Z,10.20
2017-07-26T03:28:19.198Z,9.60
2017-07-26T03:30:46.788Z,11.30
2017-07-26T03:33:14.973Z,10.40
2017-07-26T03:35:42.723Z,9.80
2017-07-26T03:38:10.325Z,9.27
2017-07-26T03:40:37.915Z,9.30
2017-07-26T03:43:05.463Z,9.50
2017-07-26T03:45:33.060Z,10.53
2017-07-26T03:48:01.457Z,9.93
2017-07-26T03:50:29.637Z,11.03
2017-07-26T03:52:57.338Z,12.43
2017-07-26T03:55:25.087Z,10.10
2017-07-26T03:57:52.709Z,11.27
2017-07-26T04:00:21.247Z,11.33
2017-07-26T04:02:48.884Z,11.00
2017-07-26T04:05:16.486Z,10.93
2017-07-26T04:07:44.140Z,11.07
2017-07-26T04:10:11.685Z,11.60
2017-07-26T04:12:39.413Z,10.17
2017-07-26T04:15:07.034Z,10.90
2017-07-26T04:17:34.857Z,10.10
2017-07-26T04:20:02.440Z,10.80
2017-07-26T04:22:30.991Z,11.10
2017-07-26T04:24:58.602Z,11.10
2017-07-26T04:27:26.182Z,11.97
2017-07-26T04:29:55.165Z,11.47
2017-07-26T04:32:23.322Z,11.20
2017-07-26T04:34:52.328Z,11.17
2017-07-26T04:37:20.528Z,11.90
2017-07-26T04:39:48.138Z,11.50
2017-07-26T04:42:15.735Z,12.80
2017-07-26T04:44:43.300Z,11.83
2017-07-26T04:47:10.906Z,10.83
2017-07-26T04:49:38.535Z,11.40
2017-07-26T04:52:06.159Z,9.67
2017-07-26T04:54:33.757Z,11.17
2017-07-26T04:57:01.572Z,14.03
2017-07-26T04:59:29.326Z,14.00
2017-07-26T05:01:57.414Z,15.07
2017-07-26T05:04:25.196Z,13.07
2017-07-26T05:06:52.752Z,15.63
2017-07-26T05:09:20.357Z,13.50
2017-07-26T05:11:48.003Z,14.23
2017-07-26T05:14:15.794Z,12.00
2017-07-26T05:16:43.728Z,13.27
2017-07-26T05:19:11.306Z,14.37
2017-07-26T05:21:39.140Z,13.43
2017-07-26T05:24:06.741Z,13.00
2017-07-26T05:26:34.505Z,13.70
2017-07-26T05:29:02.111Z,13.23
2017-07-26T05:31:29.720Z,14.03
2017-07-26T05:33:57.353Z,13.40
2017-07-26T05:36:24.973Z,14.37
2017-07-26T05:38:53.840Z,14.33
2017-07-26T05:41:22.389Z,14.53
2017-07-26T05:43:49.954Z,15.53
2017-07-26T05:46:17.734Z,14.07
2017-07-26T05:48:45.557Z,13.97
2017-07-26T05:51:13.303Z,14.57
2017-07-26T05:53:40.882Z,15.73
2017-07-26T05:56:08.454Z,15.50
2017-07-26T05:58:36.251Z,14.50
2017-07-26T06:01:03.963Z,15.50
2017-07-26T06:03:31.564Z,14.33
2017-07-26T06:05:59.209Z,16.10
2017-07-26T06:08:26.808Z,14.90
2017-07-26T06:10:54.366Z,17.07
2017-07-26T06:13:21.974Z,16.70
2017-07-26T06:15:49.910Z,15.30
2017-07-26T06:18:18.352Z,15.20
2017-07-26T06:20:45.917Z,14.83
2017-07-26T06:23:13.479Z,15.60
2017-07-26T06:25:41.085Z,17.90
2017-07-26T06:28:08.655Z,13.33
2017-07-26T06:30:36.236Z,14.97
2017-07-26T06:33:05.490Z,16.70
2017-07-26T06:35:33.088Z,14.30
2017-07-26T06:38:00.727Z,15.60
2017-07-26T06:40:28.507Z,16.10
2017-07-26T06:42:56.090Z,16.83
2017-07-26T06:45:23.732Z,17.30
2017-07-26T06:47:51.667Z,15.50
2017-07-26T06:50:19.433Z,17.07
2017-07-26T06:52:47.071Z,16.60
2017-07-26T06:55:14.613Z,16.50
2017-07-26T06:57:42.178Z,17.70
2017-07-26T07:00:09.837Z,18.17
2017-07-26T07:02:37.393Z,19.20
2017-07-26T07:05:04.935Z,18.13
2017-07-26T07:07:32.746Z,18.07
2017-07-26T07:10:00.297Z,18.27
2017-07-26T07:12:28.680Z,16.93
2017-07-26T07:14:56.265Z,16.67
2017-07-26T07:17:23.803Z,17.50
2017-07-26T07:19:51.548Z,16.60
2017-07-26T07:22:19.183Z,16.73
2017-07-26T07:24:46.807Z,16.33
2017-07-26T07:27:14.407Z,17.93
2017-07-26T07:29:42.090Z,16.70
2017-07-26T07:32:09.834Z,17.33
2017-07-26T07:34:37.365Z,16.37
2017-07-26T07:37:04.908Z,14.83
2017-07-26T07:39:32.517Z,14.93
2017-07-26T07:42:00.117Z,15.37
2017-07-26T07:44:27.764Z,15.70
2017-07-26T07:46:55.431Z,14.17
2017-07-26T07:49:23.059Z,16.03
2017-07-26T07:51:50.625Z,16.00
2017-07-26T07:54:18.442Z,15.10
2017-07-26T07:56:45.997Z,15.20
2017-07-26T07:59:13.541Z,17.93
2017-07-26T08:01:41.209Z,15.17
2017-07-26T08:04:08.747Z,14.10
2017-07-26T08:06:36.306Z,15.07
2017-07-26T08:09:03.953Z,15.47
2017-07-26T08:11:31.518Z,16.10
2017-07-26T08:13:59.098Z,14.90
2017-07-26T08:16:26.723Z,16.93
2017-07-26T08:18:54.327Z,18.87
2017-07-26T08:21:21.900Z,16.10
2017-07-26T08:23:50.160Z,16.80
2017-07-26T08:26:17.803Z,16.10
2017-07-26T08:28:46.127Z,14.60
2017-07-26T08:31:13.950Z,16.07
2017-07-26T08:33:41.811Z,14.50
2017-07-26T08:36:09.380Z,14.53
2017-07-26T08:38:37.041Z,15.03
2017-07-26T08:41:05.016Z,14.17
2017-07-26T08:43:32.615Z,14.30
2017-07-26T08:46:00.624Z,14.10
2017-07-26T08:48:29.161Z,13.90
2017-07-26T08:50:56.716Z,13.07
2017-07-26T08:53:24.313Z,12.33
2017-07-26T08:55:51.958Z,12.27
2017-07-26T08:58:19.557Z,12.87
2017-07-26T09:00:47.730Z,11.83
2017-07-26T09:03:15.285Z,12.93
2017-07-26T09:05:42.873Z,11.90
2017-07-26T09:08:10.592Z,11.47
2017-07-26T09:10:38.386Z,11.80
2017-07-26T09:13:06.039Z,10.47
2017-07-26T09:15:33.687Z,10.50
2017-07-26T09:18:01.309Z,10.67
2017-07-26T09:20:28.913Z,9.97
2017-07-26T09:22:56.516Z,9.70
2017-07-26T09:25:24.362Z,9.07
2017-07-26T09:27:52.002Z,8.20
2017-07-26T09:30:19.780Z,9.00
2017-07-26T09:32:47.591Z,8.83
2017-07-26T09:35:15.175Z,8.27
2017-07-26T09:37:42.981Z,10.40
2017-07-26T09:40:10.886Z,9.50
2017-07-26T09:42:38.705Z,8.90
2017-07-26T09:45:06.395Z,9.60
2017-07-26T09:47:33.960Z,9.03
2017-07-26T09:50:01.558Z,8.47
2017-07-26T09:52:29.174Z,8.60
2017-07-26T09:54:57.188Z,9.00
2017-07-26T09:57:24.756Z,7.83
2017-07-26T09:59:52.385Z,7.20
2017-07-26T10:02:20.015Z,7.80
2017-07-26T10:04:48.336Z,9.27
2017-07-26T10:07:15.963Z,7.43
2017-07-26T10:09:43.619Z,6.70
2017-07-26T10:12:11.247Z,7.97
2017-07-26T10:14:38.830Z,6.97
2017-07-26T10:17:06.429Z,8.37
2017-07-26T10:19:34.026Z,6.20
2017-07-26T10:22:01.744Z,7.20
2017-07-26T10:24:29.451Z,6.73
2017-07-26T10:26:57.057Z,7.63
2017-07-26T10:29:24.715Z,6.60
2017-07-26T10:31:52.444Z,7.07
2017-07-26T10:34:20.021Z,5.63
2017-07-26T10:36:48.679Z,6.00
2017-07-26T10:39:16.366Z,4.70
2017-07-26T10:41:43.951Z,5.73
2017-07-26T10:44:11.580Z,6.30
2017-07-26T10:46:39.174Z,7.00
2017-07-26T10:49:06.746Z,5.10
2017-07-26T10:51:34.315Z,5.83
2017-07-26T10:57:02.540Z,5.23
2017-07-26T10:59:30.141Z,5.83
2017-07-26T11:01:57.736Z,5.53
2017-07-26T11:04:25.366Z,5.20
2017-07-26T11:06:52.941Z,6.47
2017-07-26T11:09:21.466Z,5.30
2017-07-26T11:11:51.642Z,5.97
2017-07-26T11:14:19.275Z,6.37
2017-07-26T11:16:46.893Z,6.20
2017-07-26T11:19:14.513Z,6.60
2017-07-26T11:21:42.185Z,7.20
2017-07-26T11:24:09.982Z,5.77
2017-07-26T11:26:38.399Z,6.40
2017-07-26T11:29:05.947Z,6.37
2017-07-26T11:31:33.994Z,6.50
2017-07-26T11:34:01.559Z,6.60
2017-07-26T11:36:29.725Z,6.30
2017-07-26T11:38:58.507Z,5.50
2017-07-26T11:41:26.122Z,5.97
2017-07-26T11:43:53.652Z,5.60
2017-07-26T11:46:21.512Z,5.43
2017-07-26T11:48:49.094Z,5.40
2017-07-26T11:51:17.896Z,6.07
2017-07-26T11:53:45.510Z,6.33
2017-07-26T11:56:13.068Z,6.47
2017-07-26T11:58:40.849Z,5.70
2017-07-26T12:01:08.616Z,5.00
2017-07-26T12:03:36.193Z,5.40
2017-07-26T12:06:03.734Z,4.20
2017-07-26T12:08:31.352Z,5.13
2017-07-26T12:10:58.908Z,5.00
2017-07-26T12:13:26.674Z,4.60
2017-07-26T12:15:54.279Z,4.50
2017-07-26T12:18:21.917Z,3.97
2017-07-26T12:20:49.485Z,4.20
2017-07-26T12:23:17.521Z,4.30
2017-07-26T12:25:45.145Z,5.00
2017-07-26T12:28:12.716Z,4.40
2017-07-26T12:30:40.332Z,4.30
2017-07-26T12:33:08.098Z,5.03
2017-07-26T12:35:35.720Z,3.77
2017-07-26T12:38:03.378Z,4.37
2017-07-26T12:40:31.512Z,4.93
2017-07-26T12:42:59.070Z,4.73
2017-07-26T12:45:27.305Z,3.80
2017-07-26T12:47:55.042Z,4.70
2017-07-26T12:50:23.046Z,5.40
2017-07-26T12:52:51.188Z,4.83
2017-07-26T12:55:21.094Z,4.77
2017-07-26T12:57:54.737Z,3.83
2017-07-26T13:00:24.214Z,4.70
2017-07-26T13:02:52.527Z,4.47
2017-07-26T13:05:20.872Z,4.00
2017-07-26T13:07:54.206Z,4.47
2017-07-26T13:10:22.654Z,4.20
2017-07-26T13:12:50.522Z,4.00
2017-07-26T13:15:18.208Z,4.30
2017-07-26T13:17:45.878Z,4.67
2017-07-26T13:22:54.303Z,4.67
2017-07-26T13:25:22.352Z,5.70
2017-07-26T13:27:52.960Z,6.80
2017-07-26T13:30:21.324Z,4.33
2017-07-26T13:32:49.699Z,4.27
2017-07-26T13:35:19.107Z,5.47
2017-07-26T13:37:49.092Z,5.30
2017-07-26T13:40:18.001Z,4.50
2017-07-26T13:42:45.608Z,4.20
2017-07-26T13:45:14.335Z,4.50
2017-07-26T13:47:45.522Z,3.77
2017-07-26T13:50:13.304Z,3.90
2017-07-26T13:52:42.242Z,3.80
2017-07-26T13:55:11.228Z,4.80
2017-07-26T13:57:39.045Z,4.17
2017-07-26T14:00:10.436Z,4.20
2017-07-26T14:05:12.678Z,4.20
2017-07-26T14:07:45.475Z,4.40
2017-07-26T14:10:14.281Z,5.07
2017-07-26T14:12:42.045Z,4.83
2017-07-26T14:15:09.636Z,4.80
2017-07-26T14:17:37.303Z,4.20
2017-07-26T14:20:05.275Z,4.80
2017-07-26T14:22:32.893Z,4.50
2017-07-26T14:25:02.537Z,4.27
2017-07-26T14:27:31.671Z,4.77
2017-07-26T14:29:59.240Z,4.27
2017-07-26T14:32:26.905Z,4.90
2017-07-26T14:34:54.471Z,4.60
2017-07-26T14:37:22.049Z,4.23
2017-07-26T14:39:50.400Z,4.50
2017-07-26T14:42:28.500Z,4.43
2017-07-26T14:44:58.825Z,4.70
2017-07-26T14:47:29.121Z,4.90
2017-07-26T14:49:58.322Z,4.20
2017-07-26T14:52:29.546Z,4.43
2017-07-26T14:54:59.462Z,4.83
2017-07-26T14:57:27.797Z,5.07
2017-07-26T14:59:56.381Z,5.07
2017-07-26T15:02:24.072Z,3.93
2017-07-26T15:04:51.679Z,4.60
2017-07-26T15:07:19.229Z,4.90
2017-07-26T15:09:47.563Z,4.87
2017-07-26T15:12:16.375Z,5.10
2017-07-26T15:14:44.014Z,4.67
2017-07-26T15:17:14.927Z,4.63
2017-07-26T15:19:42.469Z,4.70
2017-07-26T15:22:09.999Z,4.67
2017-07-26T15:24:37.802Z,4.90
2017-07-26T15:27:05.357Z,4.87
2017-07-26T15:29:32.958Z,4.80
2017-07-26T15:32:00.557Z,4.27
2017-07-26T15:34:28.178Z,5.60
2017-07-26T15:36:56.354Z,4.97
2017-07-26T15:39:23.948Z,4.57
2017-07-26T15:41:54.369Z,4.93
2017-07-26T15:44:23.251Z,5.47
2017-07-26T15:46:52.287Z,5.63
2017-07-26T15:49:22.611Z,6.50
2017-07-26T15:51:51.879Z,6.93
2017-07-26T15:54:20.046Z,6.73
2017-07-26T15:56:49.457Z,6.87
2017-07-26T15:59:18.820Z,7.20
2017-07-26T16:01:49.525Z,7.83
2017-07-26T16:04:18.022Z,6.43
2017-07-26T16:06:45.590Z,7.87
2017-07-26T16:09:13.195Z,8.40
2017-07-26T16:11:40.805Z,8.13
2017-07-26T16:14:08.419Z,7.90
2017-07-26T16:16:36.004Z,8.00
2017-07-26T16:19:04.435Z,7.53
2017-07-26T16:21:33.537Z,8.30
2017-07-26T16:24:01.309Z,7.10
2017-07-26T16:26:29.147Z,8.87
2017-07-26T16:28:56.709Z,7.70
2017-07-26T16:31:24.368Z,7.30
2017-07-26T16:33:52.205Z,7.50
2017-07-26T16:36:20.141Z,7.67
2017-07-26T16:38:47.871Z,8.27
2017-07-26T16:41:15.520Z,7.90
2017-07-26T16:43:43.122Z,9.00
2017-07-26T16:46:10.738Z,7.80
2017-07-26T16:48:38.336Z,6.87
2017-07-26T16:51:05.881Z,7.60
2017-07-26T16:53:33.854Z,7.90
2017-07-26T16:56:01.414Z,8.30
2017-07-26T16:58:29.103Z,10.43
2017-07-26T17:00:57.448Z,8.50
2017-07-26T17:03:25.040Z,8.53
2017-07-26T17:05:52.726Z,8.60
2017-07-26T17:08:20.821Z,8.13
2017-07-26T17:10:48.518Z,9.10
2017-07-26T17:13:16.154Z,8.83
2017-07-26T17:15:44.701Z,7.70
2017-07-26T17:18:12.347Z,9.20
2017-07-26T17:20:39.958Z,8.50
2017-07-26T17:23:07.577Z,8.97
2017-07-26T17:25:36.048Z,8.87
2017-07-26T17:28:03.672Z,7.60
2017-07-26T17:30:31.627Z,7.60
2017-07-26T17:32:59.591Z,8.03
2017-07-26T17:35:27.238Z,8.37
2017-07-26T17:37:54.895Z,7.00
2017-07-26T17:40:22.577Z,7.43
2017-07-26T17:42:50.233Z,8.00
2017-07-26T17:45:17.866Z,7.37
2017-07-26T17:47:45.453Z,8.30
2017-07-26T17:50:13.031Z,9.20
2017-07-26T17:52:40.996Z,8.30
2017-07-26T17:55:08.770Z,8.53
2017-07-26T17:57:37.147Z,8.77
2017-07-26T18:00:08.563Z,8.30
2017-07-26T18:02:36.209Z,9.37
2017-07-26T18:05:03.876Z,10.53
2017-07-26T18:07:31.474Z,10.20
2017-07-26T18:09:59.891Z,11.00
2017-07-26T18:12:27.505Z,10.93
2017-07-26T18:14:55.163Z,11.10
2017-07-26T18:17:22.817Z,11.43
2017-07-26T18:19:50.439Z,11.33
2017-07-26T18:22:18.027Z,9.13
2017-07-26T18:24:45.765Z,10.10
2017-07-26T18:27:13.410Z,10.17
2017-07-26T18:29:41.073Z,9.80
2017-07-26T18:32:08.756Z,9.43
2017-07-26T18:34:37.760Z,9.73
2017-07-26T18:37:05.291Z,8.70
2017-07-26T18:39:33.755Z,9.30
2017-07-26T18:42:01.451Z,9.20
2017-07-26T18:44:29.066Z,9.40
2017-07-26T18:46:56.715Z,8.97
2017-07-26T18:49:24.332Z,9.27
2017-07-26T18:51:51.956Z,10.25
2017-07-26T18:54:19.628Z,10.07
2017-07-26T18:56:47.802Z,12.67
2017-07-26T18:59:15.475Z,12.90
2017-07-26T19:01:43.143Z,11.63
2017-07-26T19:04:10.677Z,10.30
2017-07-26T19:06:38.387Z,11.60
2017-07-26T19:09:06.092Z,10.73
2017-07-26T19:11:33.757Z,10.47
2017-07-26T19:14:01.997Z,12.13
2017-07-26T19:16:29.622Z,11.30
2017-07-26T19:18:57.266Z,10.30
2017-07-26T19:21:24.815Z,9.93
2017-07-26T19:23:52.508Z,9.00
2017-07-26T19:26:20.417Z,10.50
2017-07-26T19:28:48.514Z,9.90
2017-07-26T19:31:16.549Z,9.80
2017-07-26T19:33:44.146Z,9.70
2017-07-26T19:36:11.902Z,9.70
2017-07-26T19:38:39.519Z,10.20
2017-07-26T19:41:07.174Z,9.97
2017-07-26T19:43:34.769Z,13.40
2017-07-26T19:46:03.194Z,12.77
2017-07-26T19:48:30.789Z,13.13
2017-07-26T19:50:58.388Z,9.13
2017-07-26T19:53:26.043Z,12.73
2017-07-26T19:55:53.690Z,14.97
2017-07-26T19:58:21.279Z,14.80
2017-07-26T20:00:48.920Z,13.70
2017-07-26T20:03:16.594Z,12.57
2017-07-26T20:05:44.182Z,13.00
2017-07-26T20:08:11.827Z,13.20
2017-07-26T20:10:39.468Z,12.30
2017-07-26T20:13:07.051Z,13.30
2017-07-26T20:15:34.644Z,13.00
2017-07-26T20:18:02.548Z,12.53
2017-07-26T20:20:30.081Z,13.30
2017-07-26T20:22:57.676Z,11.90
2017-07-26T20:25:25.257Z,11.47
2017-07-26T20:27:53.464Z,12.03
2017-07-26T20:30:21.072Z,11.40
2017-07-26T20:32:48.622Z,10.93
2017-07-26T20:35:16.174Z,10.80
2017-07-26T20:37:43.842Z,11.77
2017-07-26T20:40:11.440Z,12.93
2017-07-26T20:42:39.149Z,10.57
2017-07-26T20:45:07.734Z,12.67
2017-07-26T20:47:35.320Z,12.10
2017-07-26T20:50:02.890Z,12.47
2017-07-26T20:52:30.542Z,11.63
2017-07-26T20:54:58.183Z,10.20
2017-07-26T20:57:25.930Z,9.70
2017-07-26T20:59:53.564Z,10.27
2017-07-26T21:02:21.173Z,10.70
2017-07-26T21:04:48.737Z,10.03
2017-07-26T21:07:16.286Z,8.80
2017-07-26T21:09:43.882Z,9.60
2017-07-26T21:12:11.501Z,9.67
2017-07-26T21:14:39.663Z,9.73
2017-07-26T21:17:07.254Z,9.97
2017-07-26T21:19:35.088Z,9.17
2017-07-26T21:22:02.675Z,9.00
2017-07-26T21:24:31.134Z,10.43
2017-07-26T21:26:58.934Z,11.37
2017-07-26T21:29:26.534Z,9.90
2017-07-26T21:31:54.129Z,9.10
2017-07-26T21:34:22.206Z,10.30
2017-07-26T21:36:49.757Z,9.10
2017-07-26T21:39:17.405Z,9.20
2017-07-26T21:41:45.003Z,9.80
2017-07-26T21:44:12.611Z,9.30
2017-07-26T21:46:40.211Z,8.83
2017-07-26T21:49:08.047Z,10.07
2017-07-26T21:51:35.689Z,9.80
2017-07-26T21:54:04.166Z,9.03
2017-07-26T21:56:31.750Z,9.20
2017-07-26T21:58:59.327Z,10.00
2017-07-26T22:01:26.983Z,9.43
2017-07-26T22:03:54.614Z,9.17
2017-07-26T22:06:22.438Z,9.00
2017-07-26T22:08:50.037Z,8.63
2017-07-26T22:11:17.935Z,9.33
2017-07-26T22:13:45.697Z,9.30
2017-07-26T22:16:13.286Z,11.17
2017-07-26T22:18:40.842Z,10.00
2017-07-26T22:21:08.414Z,9.47
2017-07-26T22:23:36.015Z,9.83
2017-07-26T22:26:03.699Z,10.00
2017-07-26T22:28:31.277Z,9.13
2017-07-26T22:30:58.928Z,9.80
2017-07-26T22:33:26.569Z,9.90
2017-07-26T22:35:54.125Z,10.10
2017-07-26T22:38:21.710Z,10.30
2017-07-26T22:40:49.483Z,10.13
2017-07-26T22:43:17.243Z,10.27
2017-07-26T22:45:44.856Z,10.53
2017-07-26T22:48:13.232Z,10.17
2017-07-26T22:50:40.791Z,9.43
2017-07-26T22:53:08.378Z,11.07
2017-07-26T22:55:36.037Z,10.07
2017-07-26T22:58:03.585Z,9.80
2017-07-26T23:00:31.300Z,10.23
2017-07-26T23:02:59.055Z,10.67
2017-07-26T23:05:26.872Z,10.10
2017-07-26T23:07:54.467Z,10.90
2017-07-26T23:10:22.079Z,10.27
2017-07-26T23:12:49.649Z,9.93
2017-07-26T23:15:17.225Z,9.77
2017-07-26T23:17:44.817Z,11.20
2017-07-26T23:20:12.577Z,10.07
2017-07-26T23:22:40.271Z,9.80
2017-07-26T23:25:07.830Z,9.87
2017-07-26T23:27:35.493Z,9.40
2017-07-26T23:30:06.165Z,10.07
2017-07-26T23:32:34.000Z,9.10
2017-07-26T23:35:01.575Z,9.80
2017-07-26T23:37:29.152Z,9.50
2017-07-26T23:39:56.735Z,10.00
2017-07-26T23:42:24.351Z,9.50
2017-07-26T23:44:51.970Z,9.13
2017-07-26T23:47:20.225Z,8.70
2017-07-26T23:49:47.848Z,10.40
2017-07-26T23:52:15.500Z,8.40
2017-07-26T23:54:43.712Z,8.90
2017-07-26T23:57:11.274Z,9.37
2017-07-26T23:59:38.888Z,9.67
